createdAt,value
2023-05-25T00:00:08.241Z,10.92
2023-05-25T00:01:08.225Z,10.94
2023-05-25T00:02:08.283Z,10.95
2023-05-25T00:03:08.311Z,10.89
2023-05-25T00:04:08.243Z,10.89
2023-05-25T00:05:08.163Z,10.76
2023-05-25T00:06:08.147Z,10.78
2023-05-25T00:07:08.196Z,10.76
2023-05-25T00:08:08.140Z,10.83
2023-05-25T00:09:08.122Z,10.81
2023-05-25T00:10:08.114Z,10.76
2023-05-25T00:11:08.102Z,10.63
2023-05-25T00:12:08.111Z,10.76
2023-05-25T00:13:08.080Z,10.76
2023-05-25T00:14:08.122Z,10.65
2023-05-25T00:15:08.065Z,10.70
2023-05-25T00:16:08.069Z,10.71
2023-05-25T00:17:08.156Z,10.65
2023-05-25T00:18:08.060Z,10.81
2023-05-25T00:19:08.017Z,10.74
2023-05-25T00:20:08.158Z,10.65
2023-05-25T00:21:07.989Z,10.59
2023-05-25T00:22:07.983Z,10.70
2023-05-25T00:23:07.968Z,10.65
2023-05-25T00:24:07.992Z,10.62
2023-05-25T00:25:07.944Z,10.60
2023-05-25T00:26:07.923Z,10.53
2023-05-25T00:27:07.924Z,10.59
2023-05-25T00:28:07.925Z,10.59
2023-05-25T00:29:08.068Z,10.51
2023-05-25T00:30:07.910Z,10.47
2023-05-25T00:31:07.908Z,10.53
2023-05-25T00:32:07.871Z,10.46
2023-05-25T00:33:07.900Z,10.58
2023-05-25T00:34:07.864Z,10.55
2023-05-25T00:35:07.819Z,10.53
2023-05-25T00:36:07.821Z,10.46
2023-05-25T00:37:07.824Z,10.52
2023-05-25T00:38:07.812Z,10.47
2023-05-25T00:39:07.824Z,10.42
2023-05-25T00:40:07.786Z,10.55
2023-05-25T00:41:07.777Z,10.52
2023-05-25T00:42:07.763Z,10.43
2023-05-25T00:43:07.746Z,10.34
2023-05-25T00:44:07.718Z,10.34
2023-05-25T00:45:07.730Z,10.34
2023-05-25T00:46:07.766Z,10.34
2023-05-25T00:47:07.678Z,10.25
2023-05-25T00:48:07.729Z,10.34
2023-05-25T00:49:07.661Z,10.33
2023-05-25T00:50:07.702Z,10.26
2023-05-25T00:51:07.654Z,10.25
2023-05-25T00:52:07.650Z,10.28
2023-05-25T00:53:07.646Z,10.25
2023-05-25T00:54:07.660Z,10.28
2023-05-25T00:55:07.614Z,10.21
2023-05-25T00:56:07.622Z,10.22
2023-05-25T00:57:07.569Z,10.25
2023-05-25T00:58:07.591Z,10.18
2023-05-25T00:59:07.625Z,10.26
2023-05-25T01:00:07.534Z,10.14
2023-05-25T01:01:07.536Z,10.21
2023-05-25T01:02:07.698Z,10.25
2023-05-25T01:03:09.664Z,10.15
2023-05-25T01:04:07.724Z,10.18
2023-05-25T01:05:07.502Z,10.15
2023-05-25T01:06:07.483Z,10.17
2023-05-25T01:07:07.471Z,10.25
2023-05-25T01:08:07.445Z,10.15
2023-05-25T01:09:07.454Z,10.09
2023-05-25T01:10:07.436Z,10.24
2023-05-25T01:11:07.404Z,10.14
2023-05-25T01:12:07.428Z,10.21
2023-05-25T01:13:07.390Z,10.14
2023-05-25T01:14:07.406Z,10.30
2023-05-25T01:15:07.393Z,10.21
2023-05-25T01:16:07.386Z,10.18
2023-05-25T01:17:07.375Z,10.15
2023-05-25T01:18:07.369Z,10.18
2023-05-25T01:19:07.329Z,10.14
2023-05-25T01:20:11.251Z,10.15
2023-05-25T01:21:07.313Z,10.12
2023-05-25T01:22:07.305Z,10.15
2023-05-25T01:23:07.270Z,10.06
2023-05-25T01:39:16.922Z,9.94
2023-05-25T01:40:16.888Z,10.10
2023-05-25T01:41:16.867Z,9.99
2023-05-25T01:42:16.830Z,9.86
2023-05-25T01:43:16.812Z,9.94
2023-05-25T01:44:16.827Z,9.99
2023-05-25T01:45:16.833Z,9.78
2023-05-25T01:46:16.814Z,9.85
2023-05-25T01:47:16.802Z,9.94
2023-05-25T01:48:16.767Z,9.79
2023-05-25T01:49:16.768Z,9.89
2023-05-25T01:50:16.744Z,9.88
2023-05-25T01:51:16.738Z,9.82
2023-05-25T01:52:16.777Z,9.81
2023-05-25T01:53:16.713Z,9.68
2023-05-25T01:54:16.693Z,9.78
2023-05-25T01:55:16.698Z,9.71
2023-05-25T01:56:16.728Z,9.85
2023-05-25T01:57:16.669Z,9.82
2023-05-25T01:58:16.648Z,9.71
2023-05-25T01:59:16.652Z,9.78
2023-05-25T02:00:16.628Z,9.67
2023-05-25T02:01:16.710Z,9.73
2023-05-25T02:02:16.721Z,9.70
2023-05-25T02:03:16.586Z,9.73
2023-05-25T02:04:16.625Z,9.75
2023-05-25T02:05:16.596Z,9.61
2023-05-25T02:06:16.561Z,9.68
2023-05-25T02:07:16.633Z,9.67
2023-05-25T02:08:16.532Z,9.60
2023-05-25T02:09:16.538Z,9.61
2023-05-25T02:10:16.529Z,9.64
2023-05-25T02:11:16.634Z,9.60
2023-05-25T02:12:16.516Z,9.57
2023-05-25T02:13:16.477Z,9.52
2023-05-25T02:14:16.479Z,9.57
2023-05-25T02:15:16.456Z,9.49
2023-05-25T02:16:16.474Z,9.50
2023-05-25T02:17:16.449Z,9.49
2023-05-25T02:18:16.461Z,9.43
2023-05-25T02:19:16.435Z,9.43
2023-05-25T02:20:16.436Z,9.32
2023-05-25T02:21:16.394Z,9.32
2023-05-25T02:22:16.391Z,9.35
2023-05-25T02:23:16.364Z,9.35
2023-05-25T02:24:16.385Z,9.24
2023-05-25T02:25:16.351Z,9.34
2023-05-25T02:26:16.353Z,9.27
2023-05-25T02:27:16.359Z,9.30
2023-05-25T02:28:16.334Z,9.18
2023-05-25T02:29:16.297Z,9.30
2023-05-25T02:30:16.302Z,9.30
2023-05-25T02:31:16.313Z,9.27
2023-05-25T02:32:16.291Z,9.23
2023-05-25T02:33:16.258Z,9.16
2023-05-25T02:34:16.260Z,9.13
2023-05-25T02:35:16.230Z,9.15
2023-05-25T02:36:16.221Z,9.04
2023-05-25T02:37:16.246Z,9.18
2023-05-25T02:38:16.215Z,9.15
2023-05-25T02:39:16.204Z,9.09
2023-05-25T02:40:16.178Z,9.01
2023-05-25T02:41:16.160Z,9.13
2023-05-25T02:42:16.221Z,9.13
2023-05-25T02:43:16.164Z,9.21
2023-05-25T02:44:16.128Z,9.21
2023-05-25T02:45:16.126Z,9.09
2023-05-25T02:46:16.133Z,9.15
2023-05-25T02:47:16.113Z,9.04
2023-05-25T02:48:16.094Z,8.99
2023-05-25T02:49:16.099Z,8.93
2023-05-25T02:50:16.070Z,8.90
2023-05-25T02:51:16.052Z,8.93
2023-05-25T02:52:16.109Z,8.94
2023-05-25T02:53:16.035Z,8.88
2023-05-25T02:54:16.014Z,8.94
2023-05-25T02:55:16.010Z,8.83
2023-05-25T02:56:16.008Z,8.83
2023-05-25T02:57:15.986Z,8.83
2023-05-25T02:58:16.005Z,8.83
2023-05-25T02:59:15.974Z,8.84
2023-05-25T03:00:15.946Z,8.84
2023-05-25T03:01:16.004Z,8.76
2023-05-25T03:02:15.928Z,8.75
2023-05-25T03:03:15.975Z,8.79
2023-05-25T03:04:15.914Z,8.84
2023-05-25T03:05:15.897Z,8.75
2023-05-25T03:06:15.890Z,8.86
2023-05-25T03:07:15.875Z,8.72
2023-05-25T03:08:15.867Z,8.75
2023-05-25T03:09:15.856Z,8.72
2023-05-25T03:10:15.842Z,8.87
2023-05-25T03:11:15.818Z,8.84
2023-05-25T03:12:15.846Z,8.83
2023-05-25T03:13:15.840Z,8.81
2023-05-25T03:14:15.828Z,8.87
2023-05-25T03:15:15.806Z,8.76
2023-05-25T03:16:15.823Z,8.78
2023-05-25T03:17:15.769Z,8.87
2023-05-25T03:18:15.767Z,8.87
2023-05-25T03:19:15.727Z,8.76
2023-05-25T03:20:15.784Z,8.76
2023-05-25T03:21:15.720Z,8.83
2023-05-25T03:22:15.709Z,8.66
2023-05-25T03:23:15.689Z,8.79
2023-05-25T03:24:15.682Z,8.73
2023-05-25T03:25:15.660Z,8.75
2023-05-25T03:26:15.653Z,8.66
2023-05-25T03:27:15.663Z,8.58
2023-05-25T03:28:15.631Z,8.75
2023-05-25T03:29:15.611Z,8.66
2023-05-25T03:30:15.613Z,8.62
2023-05-25T03:31:15.622Z,8.62
2023-05-25T03:32:15.740Z,8.72
2023-05-25T03:33:15.607Z,8.63
2023-05-25T03:34:15.564Z,8.65
2023-05-25T03:35:15.556Z,8.60
2023-05-25T03:36:15.536Z,8.72
2023-05-25T03:37:15.530Z,8.63
2023-05-25T03:38:15.522Z,8.60
2023-05-25T03:39:15.536Z,8.66
2023-05-25T03:40:15.512Z,8.71
2023-05-25T03:41:15.482Z,8.58
2023-05-25T03:42:15.466Z,8.55
2023-05-25T03:43:15.458Z,8.55
2023-05-25T03:44:15.460Z,8.62
2023-05-25T03:45:15.584Z,8.57
2023-05-25T03:46:15.465Z,8.65
2023-05-25T03:47:15.434Z,8.63
2023-05-25T03:48:15.405Z,8.71
2023-05-25T03:49:15.446Z,8.72
2023-05-25T03:50:15.392Z,8.62
2023-05-25T03:51:15.410Z,8.62
2023-05-25T03:52:15.361Z,8.60
2023-05-25T03:53:15.343Z,8.71
2023-05-25T03:54:15.335Z,8.60
2023-05-25T03:55:15.327Z,8.73
2023-05-25T03:56:15.349Z,8.58
2023-05-25T03:57:15.293Z,8.71
2023-05-25T03:58:15.308Z,8.78
2023-05-25T03:59:15.276Z,8.79
2023-05-25T04:00:15.268Z,8.72
2023-05-25T04:01:15.262Z,8.75
2023-05-25T04:02:15.302Z,8.83
2023-05-25T04:03:15.362Z,8.83
2023-05-25T04:04:15.250Z,8.79
2023-05-25T04:05:15.208Z,8.83
2023-05-25T04:06:15.211Z,8.79
2023-05-25T04:07:15.191Z,8.78
2023-05-25T04:08:15.176Z,8.76
2023-05-25T04:09:15.165Z,8.97
2023-05-25T04:10:15.157Z,8.84
2023-05-25T04:11:15.174Z,8.90
2023-05-25T04:12:15.135Z,8.97
2023-05-25T04:13:15.140Z,9.02
2023-05-25T04:14:15.118Z,8.93
2023-05-25T04:15:15.096Z,8.90
2023-05-25T04:16:15.154Z,8.97
2023-05-25T04:17:15.090Z,9.01
2023-05-25T04:18:15.093Z,9.01
2023-05-25T04:19:15.063Z,9.06
2023-05-25T04:20:15.069Z,9.05
2023-05-25T04:21:15.033Z,9.10
2023-05-25T04:22:15.041Z,9.16
2023-05-25T04:23:15.009Z,9.12
2023-05-25T04:24:14.994Z,9.21
2023-05-25T04:25:14.988Z,9.21
2023-05-25T04:26:14.977Z,9.39
2023-05-25T04:27:14.974Z,9.34
2023-05-25T04:28:14.962Z,9.49
2023-05-25T04:29:14.944Z,9.56
2023-05-25T04:30:14.962Z,9.50
2023-05-25T04:31:14.955Z,9.52
2023-05-25T04:32:14.937Z,9.56
2023-05-25T04:33:14.899Z,9.57
2023-05-25T04:34:14.880Z,9.63
2023-05-25T04:35:14.944Z,9.71
2023-05-25T04:36:14.866Z,9.73
2023-05-25T04:37:14.882Z,9.70
2023-05-25T04:38:14.831Z,9.76
2023-05-25T04:39:14.828Z,9.83
2023-05-25T04:40:14.823Z,9.88
2023-05-25T04:41:14.810Z,9.88
2023-05-25T04:42:14.796Z,9.85
2023-05-25T04:43:14.799Z,9.97
2023-05-25T04:44:14.781Z,10.00
2023-05-25T04:45:14.747Z,10.06
2023-05-25T04:46:14.813Z,10.00
2023-05-25T04:47:14.725Z,9.99
2023-05-25T04:48:14.728Z,10.09
2023-05-25T04:49:14.716Z,10.17
2023-05-25T04:50:14.694Z,10.19
2023-05-25T04:51:14.723Z,10.17
2023-05-25T04:52:14.696Z,10.24
2023-05-25T04:53:14.691Z,10.30
2023-05-25T04:54:14.661Z,10.36
2023-05-25T04:55:14.648Z,10.42
2023-05-25T04:56:14.628Z,10.39
2023-05-25T04:57:14.637Z,10.55
2023-05-25T04:58:14.847Z,10.56
2023-05-25T04:59:14.588Z,10.65
2023-05-25T05:00:14.593Z,10.71
2023-05-25T05:01:14.634Z,10.80
2023-05-25T05:02:14.663Z,10.84
2023-05-25T05:03:14.606Z,10.98
2023-05-25T05:04:14.554Z,11.07
2023-05-25T05:05:14.524Z,11.19
2023-05-25T05:06:14.525Z,11.20
2023-05-25T05:07:14.532Z,11.38
2023-05-25T05:08:14.493Z,11.39
2023-05-25T05:09:14.488Z,11.49
2023-05-25T05:10:14.478Z,11.52
2023-05-25T05:11:14.466Z,11.65
2023-05-25T05:12:14.485Z,11.67
2023-05-25T05:13:14.442Z,11.78
2023-05-25T05:14:14.447Z,11.80
2023-05-25T05:15:14.439Z,11.82
2023-05-25T05:16:14.423Z,11.89
2023-05-25T05:17:14.411Z,11.90
2023-05-25T05:18:14.396Z,11.97
2023-05-25T05:19:14.371Z,11.90
2023-05-25T05:20:14.430Z,11.96
2023-05-25T05:21:14.344Z,12.02
2023-05-25T05:22:14.355Z,12.13
2023-05-25T05:23:14.375Z,12.13
2023-05-25T05:24:14.312Z,12.13
2023-05-25T05:25:14.297Z,12.27
2023-05-25T05:26:14.302Z,12.29
2023-05-25T05:27:14.293Z,12.42
2023-05-25T05:28:14.290Z,12.52
2023-05-25T05:29:14.263Z,12.59
2023-05-25T05:30:14.245Z,12.71
2023-05-25T05:31:14.237Z,12.84
2023-05-25T05:32:14.228Z,12.89
2023-05-25T05:33:14.358Z,12.96
2023-05-25T05:34:14.222Z,13.04
2023-05-25T05:35:14.195Z,13.03
2023-05-25T05:36:14.166Z,12.97
2023-05-25T05:37:14.206Z,13.09
2023-05-25T05:38:14.162Z,13.11
2023-05-25T05:39:14.189Z,13.20
2023-05-25T05:40:14.170Z,13.40
2023-05-25T05:41:14.232Z,13.47
2023-05-25T05:42:14.153Z,13.65
2023-05-25T05:43:14.089Z,13.80
2023-05-25T05:44:14.086Z,14.01
2023-05-25T05:45:14.104Z,14.01
2023-05-25T05:46:14.093Z,14.12
2023-05-25T05:47:14.058Z,14.38
2023-05-25T05:48:14.037Z,14.47
2023-05-25T05:49:14.049Z,14.64
2023-05-25T05:50:14.022Z,14.72
2023-05-25T05:51:14.022Z,14.95
2023-05-25T05:52:14.018Z,14.95
2023-05-25T05:53:13.995Z,15.05
2023-05-25T05:54:13.982Z,15.21
2023-05-25T05:55:14.016Z,15.46
2023-05-25T05:56:13.961Z,15.60
2023-05-25T05:57:13.967Z,15.79
2023-05-25T05:58:13.918Z,15.94
2023-05-25T05:59:13.912Z,16.00
2023-05-25T06:00:13.912Z,16.20
2023-05-25T06:01:13.894Z,16.48
2023-05-25T06:02:13.949Z,16.65
2023-05-25T06:03:13.920Z,16.75
2023-05-25T06:04:13.862Z,16.81
2023-05-25T06:05:13.893Z,17.07
2023-05-25T06:06:13.826Z,17.15
2023-05-25T06:07:13.856Z,17.29
2023-05-25T06:08:13.856Z,17.38
2023-05-25T06:09:13.928Z,17.53
2023-05-25T06:10:13.823Z,17.64
2023-05-25T06:11:13.863Z,17.66
2023-05-25T06:12:13.786Z,17.70
2023-05-25T06:13:13.763Z,17.89
2023-05-25T06:14:13.751Z,17.85
2023-05-25T06:15:13.753Z,17.87
2023-05-25T06:16:13.765Z,17.95
2023-05-25T06:17:13.735Z,17.92
2023-05-25T06:18:13.759Z,17.87
2023-05-25T06:19:13.697Z,18.00
2023-05-25T06:20:13.788Z,17.94
2023-05-25T06:21:13.672Z,17.76
2023-05-25T06:22:13.673Z,17.44
2023-05-25T06:23:13.651Z,17.32
2023-05-25T06:24:13.619Z,17.35
2023-05-25T06:25:13.624Z,17.30
2023-05-25T06:26:13.612Z,17.13
2023-05-25T06:27:13.633Z,16.75
2023-05-25T06:28:13.596Z,16.88
2023-05-25T06:29:16.091Z,16.98
2023-05-25T06:30:13.571Z,17.11
2023-05-25T06:31:13.572Z,17.23
2023-05-25T06:32:13.581Z,17.40
2023-05-25T06:33:13.539Z,17.53
2023-05-25T06:34:13.538Z,17.38
2023-05-25T06:35:13.576Z,17.11
2023-05-25T06:36:13.483Z,16.70
2023-05-25T06:37:13.477Z,16.37
2023-05-25T06:38:13.474Z,16.34
2023-05-25T06:39:13.471Z,16.44
2023-05-25T06:40:13.508Z,16.20
2023-05-25T06:41:13.447Z,16.07
2023-05-25T06:42:13.419Z,16.22
2023-05-25T06:43:13.493Z,16.40
2023-05-25T06:44:13.413Z,16.63
2023-05-25T06:45:13.391Z,16.93
2023-05-25T06:46:13.418Z,17.20
2023-05-25T06:47:13.361Z,17.07
2023-05-25T06:48:13.431Z,16.77
2023-05-25T06:49:13.344Z,16.71
2023-05-25T06:50:13.363Z,16.86
2023-05-25T06:51:13.369Z,17.10
2023-05-25T06:52:13.303Z,17.35
2023-05-25T06:53:13.296Z,17.73
2023-05-25T06:54:13.285Z,17.64
2023-05-25T06:55:13.276Z,17.55
2023-05-25T06:56:13.277Z,17.79
2023-05-25T06:57:13.270Z,17.91
2023-05-25T06:58:13.234Z,18.29
2023-05-25T06:59:13.252Z,18.62
2023-05-25T07:00:13.211Z,18.43
2023-05-25T07:01:13.237Z,18.39
2023-05-25T07:02:13.202Z,18.13
2023-05-25T07:03:13.203Z,18.13
2023-05-25T07:04:13.166Z,18.40
2023-05-25T07:05:13.244Z,18.52
2023-05-25T07:06:13.157Z,18.91
2023-05-25T07:07:13.170Z,19.05
2023-05-25T07:08:13.162Z,19.15
2023-05-25T07:09:13.163Z,19.21
2023-05-25T07:10:13.113Z,19.24
2023-05-25T07:11:13.232Z,19.24
2023-05-25T07:12:13.328Z,19.17
2023-05-25T07:13:13.102Z,19.36
2023-05-25T07:14:13.330Z,19.15
2023-05-25T07:15:13.163Z,19.36
2023-05-25T07:16:13.065Z,19.39
2023-05-25T07:17:13.049Z,19.60
2023-05-25T07:18:13.077Z,19.87
2023-05-25T07:19:13.038Z,20.16
2023-05-25T07:20:13.173Z,20.34
2023-05-25T07:21:13.001Z,20.79
2023-05-25T07:22:12.995Z,21.11
2023-05-25T07:23:13.031Z,21.21
2023-05-25T07:24:12.961Z,21.36
2023-05-25T07:25:12.963Z,21.56
2023-05-25T07:26:12.930Z,21.81
2023-05-25T07:27:12.922Z,21.56
2023-05-25T07:28:12.902Z,21.29
2023-05-25T07:29:12.923Z,20.87
2023-05-25T07:30:12.917Z,20.79
2023-05-25T07:31:12.967Z,20.76
2023-05-25T07:32:12.874Z,20.83
2023-05-25T07:33:12.881Z,20.84
2023-05-25T07:34:12.862Z,21.05
2023-05-25T07:35:12.942Z,21.26
2023-05-25T07:36:12.880Z,21.50
2023-05-25T07:37:12.836Z,21.79
2023-05-25T07:38:12.815Z,21.97
2023-05-25T07:39:12.784Z,22.16
2023-05-25T07:40:12.829Z,22.32
2023-05-25T07:41:12.776Z,22.43
2023-05-25T07:42:12.888Z,22.57
2023-05-25T07:43:12.746Z,22.74
2023-05-25T07:44:12.733Z,23.01
2023-05-25T07:45:12.742Z,23.14
2023-05-25T07:46:12.718Z,23.02
2023-05-25T07:47:12.834Z,22.77
2023-05-25T07:48:12.748Z,22.43
2023-05-25T07:49:12.702Z,22.12
2023-05-25T07:50:12.679Z,22.12
2023-05-25T07:51:12.691Z,21.98
2023-05-25T07:52:12.662Z,21.83
2023-05-25T07:53:12.690Z,21.85
2023-05-25T07:54:12.710Z,21.83
2023-05-25T07:55:12.645Z,21.99
2023-05-25T07:56:12.596Z,22.27
2023-05-25T07:57:12.613Z,22.54
2023-05-25T07:58:12.585Z,22.69
2023-05-25T07:59:12.593Z,22.93
2023-05-25T08:00:12.567Z,23.07
2023-05-25T08:01:12.548Z,23.22
2023-05-25T08:02:12.566Z,23.40
2023-05-25T08:03:12.672Z,23.55
2023-05-25T08:04:12.579Z,23.64
2023-05-25T08:05:12.647Z,23.72
2023-05-25T08:06:12.488Z,23.85
2023-05-25T08:07:12.476Z,23.90
2023-05-25T08:08:12.465Z,24.16
2023-05-25T08:09:12.517Z,24.29
2023-05-25T08:10:12.485Z,24.37
2023-05-25T08:11:12.446Z,24.01
2023-05-25T08:13:12.415Z,23.23
2023-05-25T08:14:12.413Z,22.69
2023-05-25T08:15:12.401Z,22.32
2023-05-25T08:16:12.409Z,22.39
2023-05-25T08:17:12.500Z,22.38
2023-05-25T08:18:12.390Z,22.56
2023-05-25T08:19:12.390Z,22.87
2023-05-25T08:20:12.381Z,23.08
2023-05-25T08:21:12.323Z,23.32
2023-05-25T08:22:12.361Z,23.68
2023-05-25T08:23:12.337Z,23.80
2023-05-25T08:24:12.304Z,23.97
2023-05-25T08:25:12.281Z,24.24
2023-05-25T08:26:31.180Z,24.52
2023-05-25T08:27:13.314Z,24.69
2023-05-25T08:28:12.257Z,24.76
2023-05-25T08:29:12.238Z,24.59
2023-05-25T08:30:12.219Z,24.39
2023-05-25T08:31:12.258Z,24.34
2023-05-25T08:32:12.213Z,24.27
2023-05-25T08:33:12.277Z,24.13
2023-05-25T08:34:12.190Z,23.94
2023-05-25T08:35:12.190Z,23.94
2023-05-25T08:36:12.162Z,23.97
2023-05-25T08:37:12.162Z,24.22
2023-05-25T08:38:12.136Z,24.41
2023-05-25T08:39:12.150Z,24.54
2023-05-25T08:40:12.117Z,24.85
2023-05-25T08:41:12.179Z,24.90
2023-05-25T08:42:12.091Z,24.94
2023-05-25T08:43:12.079Z,24.79
2023-05-25T08:44:12.152Z,24.53
2023-05-25T08:45:22.562Z,24.31
2023-05-25T08:46:13.055Z,24.13
2023-05-25T08:47:12.053Z,23.76
2023-05-25T08:48:12.309Z,23.64
2023-05-25T08:49:12.138Z,23.32
2023-05-25T08:50:12.017Z,23.50
2023-05-25T08:51:12.297Z,23.64
2023-05-25T08:52:12.023Z,23.72
2023-05-25T08:53:12.099Z,23.72
2023-05-25T08:54:12.001Z,23.77
2023-05-25T08:55:11.954Z,23.97
2023-05-25T08:56:11.953Z,24.00
2023-05-25T08:57:11.947Z,24.16
2023-05-25T08:58:11.934Z,24.34
2023-05-25T08:59:11.909Z,24.56
2023-05-25T09:00:11.905Z,24.68
2023-05-25T09:01:11.900Z,24.91
2023-05-25T09:02:12.016Z,25.07
2023-05-25T09:03:11.987Z,25.37
2023-05-25T09:04:12.049Z,25.53
2023-05-25T09:05:11.996Z,25.43
2023-05-25T09:06:11.840Z,25.31
2023-05-25T09:07:12.014Z,25.19
2023-05-25T09:08:12.671Z,24.95
2023-05-25T09:09:11.818Z,24.68
2023-05-25T09:10:11.793Z,24.60
2023-05-25T09:11:16.221Z,24.47
2023-05-25T09:12:12.777Z,24.35
2023-05-25T09:13:20.573Z,24.08
2023-05-25T09:14:12.745Z,23.97
2023-05-25T09:15:11.744Z,23.82
2023-05-25T09:16:11.749Z,23.68
2023-05-25T09:17:11.737Z,23.40
2023-05-25T09:18:13.078Z,23.17
2023-05-25T09:19:11.751Z,23.08
2023-05-25T09:20:11.710Z,23.09
2023-05-25T09:21:11.683Z,23.04
2023-05-25T09:22:15.995Z,23.05
2023-05-25T09:23:12.714Z,22.94
2023-05-25T09:24:11.633Z,22.89
2023-05-25T09:25:11.648Z,23.04
2023-05-25T09:26:11.624Z,23.24
2023-05-25T09:27:11.631Z,23.52
2023-05-25T09:29:12.632Z,23.79
2023-05-25T09:30:11.594Z,23.97
2023-05-25T09:31:11.558Z,24.20
2023-05-25T09:32:11.613Z,24.34
2023-05-25T09:33:11.623Z,24.19
2023-05-25T09:34:11.541Z,24.44
2023-05-25T09:35:11.554Z,24.64
2023-05-25T09:36:11.523Z,24.68
2023-05-25T09:37:11.685Z,24.90
2023-05-25T09:38:11.795Z,24.98
2023-05-25T09:39:11.684Z,25.09
2023-05-25T09:40:11.492Z,25.10
2023-05-25T09:41:11.511Z,24.92
2023-05-25T09:42:11.466Z,24.95
2023-05-25T09:43:11.437Z,25.15
2023-05-25T09:44:12.155Z,25.32
2023-05-25T09:45:11.414Z,25.46
2023-05-25T09:46:11.531Z,25.83
2023-05-25T09:47:11.448Z,26.11
2023-05-25T09:48:11.462Z,26.28
2023-05-25T09:49:11.393Z,26.28
2023-05-25T09:50:11.366Z,26.40
2023-05-25T09:51:11.375Z,26.50
2023-05-25T09:52:11.353Z,26.59
2023-05-25T09:53:11.360Z,26.55
2023-05-25T09:54:11.334Z,26.44
2023-05-25T09:55:11.340Z,26.18
2023-05-25T09:56:11.300Z,26.05
2023-05-25T09:57:11.300Z,26.01
2023-05-25T09:58:11.289Z,25.79
2023-05-25T09:59:11.287Z,25.62
2023-05-25T10:00:11.290Z,25.72
2023-05-25T10:01:11.315Z,25.68
2023-05-25T10:02:11.244Z,25.77
2023-05-25T10:03:11.295Z,25.90
2023-05-25T10:04:11.262Z,26.02
2023-05-25T10:05:11.261Z,26.05
2023-05-25T10:06:11.223Z,26.04
2023-05-25T10:07:11.173Z,25.89
2023-05-25T10:08:11.184Z,25.65
2023-05-25T10:09:11.174Z,25.50
2023-05-25T10:10:11.153Z,25.46
2023-05-25T10:11:11.166Z,25.52
2023-05-25T10:12:11.154Z,25.69
2023-05-25T10:13:11.114Z,25.97
2023-05-25T10:14:11.118Z,26.04
2023-05-25T10:15:11.120Z,26.25
2023-05-25T10:16:11.112Z,26.55
2023-05-25T10:17:11.095Z,26.69
2023-05-25T10:18:11.209Z,26.69
2023-05-25T10:19:11.043Z,26.92
2023-05-25T10:20:11.084Z,27.01
2023-05-25T10:21:11.044Z,27.17
2023-05-25T10:22:11.015Z,27.33
2023-05-25T10:23:11.058Z,27.36
2023-05-25T10:24:10.992Z,27.35
2023-05-25T10:25:11.013Z,27.17
2023-05-25T10:26:11.144Z,27.05
2023-05-25T10:27:25.622Z,26.99
2023-05-25T10:28:11.984Z,26.83
2023-05-25T10:29:10.928Z,26.72
2023-05-25T10:30:10.924Z,26.39
2023-05-25T10:31:10.992Z,26.17
2023-05-25T10:32:10.912Z,25.98
2023-05-25T10:33:10.967Z,25.67
2023-05-25T10:34:10.891Z,25.62
2023-05-25T10:35:10.881Z,25.47
2023-05-25T10:36:11.674Z,25.65
2023-05-25T10:37:10.862Z,25.79
2023-05-25T10:38:10.857Z,25.84
2023-05-25T10:39:10.835Z,26.09
2023-05-25T10:40:10.814Z,26.36
2023-05-25T10:41:10.833Z,26.57
2023-05-25T10:42:10.806Z,26.77
2023-05-25T10:43:10.811Z,26.83
2023-05-25T10:44:10.773Z,26.91
2023-05-25T10:45:10.770Z,26.96
2023-05-25T10:46:10.751Z,27.02
2023-05-25T10:47:10.881Z,27.02
2023-05-25T10:48:10.800Z,27.17
2023-05-25T10:49:10.728Z,27.11
2023-05-25T10:50:10.721Z,27.11
2023-05-25T10:51:11.984Z,27.13
2023-05-25T10:52:10.736Z,27.01
2023-05-25T10:53:10.678Z,26.98
2023-05-25T10:54:10.723Z,27.01
2023-05-25T10:55:10.677Z,27.02
2023-05-25T10:56:10.836Z,26.77
2023-05-25T10:57:10.623Z,26.77
2023-05-25T10:58:10.616Z,26.69
2023-05-25T10:59:10.637Z,26.77
2023-05-25T11:00:10.668Z,26.81
2023-05-25T11:01:10.670Z,26.81
2023-05-25T11:02:10.669Z,26.89
2023-05-25T11:03:10.608Z,26.95
2023-05-25T11:04:10.637Z,27.09
2023-05-25T11:05:10.563Z,27.17
2023-05-25T11:06:10.538Z,27.19
2023-05-25T11:07:10.553Z,27.11
2023-05-25T11:08:10.523Z,27.04
2023-05-25T11:09:10.497Z,26.96
2023-05-25T11:10:10.538Z,26.84
2023-05-25T11:11:10.521Z,26.79
2023-05-25T11:12:10.466Z,26.79
2023-05-25T11:13:10.472Z,26.65
2023-05-25T11:14:10.460Z,26.67
2023-05-25T11:15:10.471Z,26.47
2023-05-25T11:16:10.420Z,26.31
2023-05-25T11:17:10.867Z,26.02
2023-05-25T11:18:10.436Z,25.80
2023-05-25T11:19:10.405Z,25.79
2023-05-25T11:20:10.438Z,25.72
2023-05-25T11:21:10.366Z,25.71
2023-05-25T11:22:10.376Z,25.74
2023-05-25T11:23:10.346Z,25.64
2023-05-25T11:24:10.340Z,25.72
2023-05-25T11:25:10.375Z,25.74
2023-05-25T11:26:10.328Z,25.86
2023-05-25T11:27:10.316Z,25.84
2023-05-25T11:28:10.296Z,25.86
2023-05-25T11:29:10.289Z,25.75
2023-05-25T11:30:10.316Z,25.79
2023-05-25T11:31:10.326Z,25.80
2023-05-25T11:32:10.375Z,25.87
2023-05-25T11:33:10.294Z,25.93
2023-05-25T11:34:10.243Z,25.91
2023-05-25T11:35:10.232Z,25.91
2023-05-25T11:36:10.221Z,25.67
2023-05-25T11:37:10.421Z,25.57
2023-05-25T11:38:10.200Z,25.50
2023-05-25T11:39:20.525Z,25.42
2023-05-25T11:40:11.205Z,25.24
2023-05-25T11:41:10.184Z,24.92
2023-05-25T11:42:10.172Z,24.80
2023-05-25T11:43:10.160Z,24.68
2023-05-25T11:44:10.133Z,24.64
2023-05-25T11:45:10.101Z,24.53
2023-05-25T11:46:10.130Z,24.41
2023-05-25T11:47:10.280Z,24.29
2023-05-25T11:48:10.127Z,24.26
2023-05-25T11:49:10.088Z,24.16
2023-05-25T11:50:10.079Z,24.17
2023-05-25T11:51:10.056Z,24.10
2023-05-25T11:52:10.049Z,23.92
2023-05-25T11:53:10.027Z,23.85
2023-05-25T11:54:10.047Z,23.82
2023-05-25T11:55:10.036Z,23.79
2023-05-25T11:56:10.440Z,23.83
2023-05-25T11:57:09.992Z,23.89
2023-05-25T11:58:09.976Z,23.95
2023-05-25T11:59:09.953Z,23.89
2023-05-25T12:00:09.988Z,23.87
2023-05-25T12:01:09.944Z,23.72
2023-05-25T12:02:09.924Z,23.79
2023-05-25T12:03:09.989Z,23.79
2023-05-25T12:04:09.966Z,23.67
2023-05-25T12:05:11.292Z,23.53
2023-05-25T12:06:09.875Z,23.55
2023-05-25T12:07:09.889Z,23.47
2023-05-25T12:08:09.851Z,23.47
2023-05-25T12:09:09.834Z,23.45
2023-05-25T12:10:09.964Z,23.43
2023-05-25T12:11:09.828Z,23.55
2023-05-25T12:12:09.822Z,23.70
2023-05-25T12:13:09.816Z,23.57
2023-05-25T12:14:09.797Z,23.43
2023-05-25T12:15:09.781Z,23.40
2023-05-25T12:16:09.801Z,23.34
2023-05-25T12:17:09.814Z,23.45
2023-05-25T12:18:09.786Z,23.50
2023-05-25T12:19:09.760Z,23.65
2023-05-25T12:20:09.851Z,23.77
2023-05-25T12:21:09.699Z,23.64
2023-05-25T12:22:09.736Z,23.85
2023-05-25T12:23:09.676Z,23.77
2023-05-25T12:24:09.698Z,23.83
2023-05-25T12:25:09.675Z,23.67
2023-05-25T12:26:09.660Z,23.50
2023-05-25T12:27:11.101Z,23.31
2023-05-25T12:28:09.659Z,23.24
2023-05-25T12:29:09.625Z,23.22
2023-05-25T12:30:09.620Z,23.27
2023-05-25T12:31:09.630Z,23.34
2023-05-25T12:32:09.606Z,23.24
2023-05-25T12:33:09.669Z,23.40
2023-05-25T12:34:09.559Z,23.38
2023-05-25T12:35:09.579Z,23.40
2023-05-25T12:36:09.546Z,23.20
2023-05-25T12:37:09.542Z,23.19
2023-05-25T12:38:09.521Z,23.23
2023-05-25T12:39:09.514Z,23.24
2023-05-25T12:40:09.490Z,23.27
2023-05-25T12:41:09.471Z,23.35
2023-05-25T12:42:09.491Z,23.31
2023-05-25T12:43:09.466Z,23.43
2023-05-25T12:44:09.481Z,23.52
2023-05-25T12:45:09.440Z,23.46
2023-05-25T12:46:09.444Z,23.49
2023-05-25T12:47:09.408Z,23.50
2023-05-25T12:48:09.481Z,23.29
2023-05-25T12:49:09.401Z,23.17
2023-05-25T12:50:09.479Z,23.08
2023-05-25T12:51:09.384Z,23.11
2023-05-25T12:52:09.355Z,23.12
2023-05-25T12:53:09.367Z,23.09
2023-05-25T12:54:09.361Z,23.01
2023-05-25T12:55:09.325Z,23.14
2023-05-25T12:56:09.311Z,23.09
2023-05-25T12:57:09.312Z,22.99
2023-05-25T12:58:09.289Z,23.05
2023-05-25T12:59:09.294Z,23.08
2023-05-25T13:00:09.267Z,23.24
2023-05-25T13:01:09.284Z,23.20
2023-05-25T13:02:09.339Z,23.19
2023-05-25T13:03:09.302Z,23.31
2023-05-25T13:04:09.226Z,23.22
2023-05-25T13:05:09.240Z,23.19
2023-05-25T13:06:09.210Z,23.24
2023-05-25T13:07:09.227Z,23.12
2023-05-25T13:08:09.208Z,23.09
2023-05-25T13:09:09.164Z,23.11
2023-05-25T13:10:09.285Z,23.05
2023-05-25T13:11:09.141Z,23.04
2023-05-25T13:12:09.135Z,23.11
2023-05-25T13:13:09.124Z,22.99
2023-05-25T13:14:09.265Z,22.93
2023-05-25T13:15:09.097Z,23.07